• Join FlightAware (Why Join?)
  • Login
  • US Flag 
08:00AM EDT


 

Airport Tracker/Info


-or-


 

Live Flight TrackerFlight Track Log ✈ SWA407 ✈ 17-Apr-2013 ✈ KATL - KSFO

Flight Track Log - Related Links

Times and Time Zones

All times are in EDT time to prevent confusion due to time zone crossing. See the SWA407 flight status page for this flight to view local times or setup timezone preferences in your user account.

Time Position Orientation Groundspeed Altitude Reporting Facility
EDT Latitude Longitude Course Direction KTS MPH feet Rate Location/Type
06:22PM 33.6500 -84.3500 234° Southwest 208 239 3,000  Level Atlanta TRACON
06:23PM 33.7000 -84.2833 48° Northeast 279 321 5,500 2,820 Climbing Atlanta TRACON
06:24PM 33.7667 -84.2833 360° North 288 331 8,700 3,060 Climbing Atlanta TRACON
06:25PM 33.8103 -84.4264 290° West 301 346 13,600 2,160 Climbing Atlanta Center
06:26PM 33.8100 -84.5289 270° West 301 346 14,400 1,440 Climbing Atlanta Center
06:27PM 33.7254 -84.6943 234° Southwest  Level FlightAware Approximate
06:27PM 33.7931 -84.6136 256° West 301 346 16,500  Level Atlanta Center
06:28PM 33.7383 -84.6983 232° Southwest 301 346 18,300 1,740 Climbing Atlanta Center
06:29PM 33.6792 -84.7928 233° Southwest 331 381 20,000 1,980 Climbing Atlanta Center
06:30PM 33.6222 -84.8969 237° Southwest 362 417 22,300 1,800 Climbing Atlanta Center
06:31PM 33.5714 -85.0086 241° Southwest 384 442 23,600 1,200 Climbing Atlanta Center
06:32PM 33.5158 -85.1325 242° Southwest 409 471 24,700 1,260 Climbing Atlanta Center
06:33PM 33.4667 -85.2639 246° West 431 496 26,200 1,440 Climbing Atlanta Center
06:34PM 33.4381 -85.4056 256° West 445 512 27,600 1,500 Climbing Atlanta Center
06:35PM 33.3719 -85.5339 238° Southwest 445 512 29,300 1,200 Climbing Atlanta Center
06:36PM 33.2872 -85.6292 223° Southwest 440 506 30,000 300 Climbing Atlanta Center
06:37PM 33.1983 -85.7269 223° Southwest 434 499 30,000 180 Level Atlanta Center
06:38PM 33.1133 -85.8194 222° Southwest 429 494 30,400 780 Climbing Atlanta Center
06:39PM 33.0264 -85.9192 224° Southwest 423 487 31,600 1,260 Climbing Atlanta Center
06:40PM 32.9394 -86.0089 221° Southwest 423 487 33,000 1,200 Climbing Atlanta Center
06:41PM 32.8586 -86.0986 223° Southwest 410 472 34,000 600 Climbing Atlanta Center
06:42PM 32.7797 -86.1908 225° Southwest 399 459 34,300 720 Climbing Atlanta Center
06:43PM 32.6969 -86.2800 222° Southwest 399 459 35,500 780 Climbing Atlanta Center
06:44PM 32.6158 -86.3692 223° Southwest 399 459 35,900 240 Climbing Atlanta Center
06:45PM 32.5328 -86.4583 222° Southwest 399 459 36,000  Climbing Atlanta Center
06:46PM 32.4514 -86.5544 225° Southwest 404 465 36,000  Level Atlanta Center
06:47PM 32.3683 -86.6456 223° Southwest 409 471 36,000  Level Atlanta Center
06:48PM 32.2767 -86.7361 220° Southwest 409 471 36,000  Level Atlanta Center
06:49PM 32.1911 -86.8244 221° Southwest 420 483 36,000  Level Atlanta Center
06:50PM 32.1056 -86.9175 223° Southwest 420 483 36,000  Level Atlanta Center
06:51PM 32.0069 -87.0219 222° Southwest 427 491 36,000  Level Atlanta Center
06:52PM 31.9214 -87.1122 222° Southwest 427 491 36,000  Level Atlanta Center
06:53PM 31.8333 -87.2069 222° Southwest 421 484 36,000  Level Atlanta Center
06:54PM 31.7433 -87.2989 221° Southwest 426 490 36,000  Level Atlanta Center
06:55PM 31.6700 -87.3842 225° Southwest 417 480 36,000  Level Atlanta Center
06:57PM 31.4883 -87.5681 221° Southwest 429 494 36,000  Level Houston Center
06:58PM 31.4008 -87.6606 222° Southwest 425 489 36,000  Level Houston Center
06:59PM 31.2931 -87.7722 222° Southwest 427 491 36,000  Level Houston Center
07:01PM 31.2006 -87.8681 222° Southwest 432 497 36,000  Level Houston Center
07:02PM 31.1103 -87.9622 222° Southwest 434 499 36,000  Level Houston Center
07:03PM 31.0169 -88.0569 221° Southwest 444 511 36,000  Level Houston Center
07:04PM 30.9253 -88.1500 221° Southwest 441 507 36,000  Level Houston Center
07:05PM 30.8328 -88.2458 222° Southwest 443 510 36,000  Level Houston Center
07:06PM 30.7419 -88.3397 222° Southwest 439 505 36,000  Level Houston Center
07:07PM 30.6722 -88.4586 236° Southwest 422 486 36,000  Level Houston Center
07:08PM 30.6100 -88.5761 238° Southwest 424 488 36,000  Level Houston Center
07:09PM 30.5367 -88.7169 239° Southwest 424 488 36,000  Level Houston Center
07:10PM 30.4753 -88.8336 239° Southwest 424 488 36,000  Level Houston Center
07:11PM 30.4133 -88.9508 239° Southwest 426 490 36,000  Level Houston Center
07:12PM 30.3553 -89.0600 238° Southwest 425 489 36,000  Level Houston Center
07:13PM 30.2817 -89.2011 239° Southwest 425 489 36,000  Level Houston Center
07:14PM 30.2703 -89.3289 264° West 404 465 36,000  Level Houston Center
07:15PM 30.2661 -89.4572 268° West 399 459 36,000  Level Houston Center
07:16PM 30.2622 -89.5844 268° West 396 456 36,000  Level Houston Center
07:17PM 30.2556 -89.7119 267° West 393 452 36,000  Level Houston Center
07:18PM 30.2514 -89.8450 268° West 398 458 36,000  Level Houston Center
07:19PM 30.2500 -89.9747 269° West 398 458 36,000  Level Houston Center
07:20PM 30.2453 -90.1003 268° West 389 448 36,000  Level Houston Center
07:21PM 30.2397 -90.2517 268° West 393 452 36,000  Level Houston Center
07:22PM 30.2350 -90.3767 268° West 390 449 36,000  Level Houston Center
07:23PM 30.2300 -90.5008 267° West 389 448 36,000  Level Houston Center
07:24PM 30.2253 -90.6256 268° West 390 449 36,000  Level Houston Center
07:25PM 30.2203 -90.7503 267° West 389 448 36,000  Level Houston Center
07:26PM 30.2153 -90.8742 267° West 387 445 36,000  Level Houston Center
07:27PM 30.2092 -91.0233 267° West 386 444 36,000  Level Houston Center
07:28PM 30.2033 -91.1475 267° West 389 448 36,000  Level Houston Center
07:30PM 30.1981 -91.2714 267° West 386 444 36,000  Level Houston Center
07:31PM 30.1931 -91.3950 267° West 387 445 36,000  Level Houston Center
07:32PM 30.1872 -91.5192 267° West 386 444 36,000  Level Houston Center
07:33PM 30.1819 -91.6433 267° West 388 447 36,000  Level Houston Center
07:34PM 30.1756 -91.7831 267° West 384 442 36,000  Level Houston Center
07:35PM 30.1683 -91.9056 266° West 381 438 36,000  Level Houston Center
07:36PM 30.1622 -92.0283 267° West 382 440 36,000  Level Houston Center
07:37PM 30.1553 -92.1719 267° West 374 430 36,000  Level Houston Center
07:38PM 30.1500 -92.2897 267° West 369 425 36,000  Level Houston Center
07:39PM 30.1436 -92.4078 266° West 367 422 36,000  Level Houston Center
07:40PM 30.1378 -92.5272 267° West 369 425 36,000  Level Houston Center
07:41PM 30.1306 -92.6453 266° West 368 423 36,000  Level Houston Center
07:42PM 30.1247 -92.7625 267° West 367 422 36,000  Level Houston Center
07:43PM 30.1172 -92.9053 267° West 370 426 36,000  Level Houston Center
07:44PM 30.1097 -93.0233 266° West 370 426 36,000  Level Houston Center
07:45PM 30.1031 -93.1428 266° West 371 427 36,000  Level Houston Center
07:46PM 30.0950 -93.2628 266° West 373 429 36,000  Level Houston Center
07:47PM 30.0892 -93.3836 267° West 376 433 36,000  Level Houston Center
07:48PM 30.0811 -93.5022 266° West 373 429 36,000  Level Houston Center
07:49PM 30.0742 -93.6342 267° West 373 429 36,000  Level Houston Center
07:50PM 30.0653 -93.7528 265° West 372 428 36,000  Level Houston Center
07:51PM 30.0583 -93.8706 266° West 371 427 36,000  Level Houston Center
07:52PM 30.0514 -93.9889 266° West 370 426 36,000  Level Houston Center
07:53PM 30.0422 -94.1283 266° West 365 420 36,000  Level Houston Center
07:54PM 30.0347 -94.2431 266° West 362 417 36,000  Level Houston Center
07:55PM 30.0267 -94.3589 265° West 363 418 36,000  Level Houston Center
07:56PM 30.0192 -94.4753 266° West 364 419 36,000  Level Houston Center
07:57PM 30.0114 -94.5914 266° West 365 420 36,000  Level Houston Center
07:58PM 30.0022 -94.7314 266° West 367 422 36,000  Level Houston Center
08:00PM 29.9950 -94.8478 266° West 367 422 36,000  Level Houston Center
08:01PM 29.9872 -94.9644 266° West 368 423 36,000  Level Houston Center
08:02PM 29.9781 -95.0814 265° West 369 425 36,000  Level Houston Center
08:03PM 29.9689 -95.1983 265° West 370 426 36,000  Level Houston Center
08:04PM 29.9592 -95.3394 265° West 372 428 36,000  Level Houston Center
08:05PM 29.9742 -95.4528 279° West 359 413 36,000  Level Houston Center
08:06PM 29.9936 -95.5689 281° West 363 418 36,000  Level Houston Center
08:07PM 30.0119 -95.6842 280° West 367 422 36,000  Level Houston Center
08:08PM 30.0294 -95.7997 280° West 368 423 36,000  Level Houston Center
08:09PM 30.0503 -95.9386 280° West 368 423 36,000  Level Houston Center
08:10PM 30.0686 -96.0506 281° West 362 417 36,000  Level Houston Center
08:11PM 30.0900 -96.1633 282° West 361 415 36,000  Level Houston Center
08:12PM 30.1139 -96.2744 284° West 359 413 36,000  Level Houston Center
08:13PM 30.1406 -96.3989 284° West 360 414 36,000  Level Houston Center
08:14PM 30.1642 -96.5097 284° West 353 406 36,000  Level Houston Center
08:15PM 30.1869 -96.6208 283° West 352 405 36,000  Level Houston Center
08:16PM 30.2094 -96.7286 284° West 343 395 36,000  Level Houston Center
08:17PM 30.2319 -96.8386 283° West 345 397 36,000  Level Houston Center
08:18PM 30.2550 -96.9486 284° West 347 399 36,000  Level Houston Center
08:19PM 30.2872 -97.0767 286° West 350 403 36,000  Level Houston Center
08:20PM 30.3128 -97.1847 285° West 347 399 36,000  Level Houston Center
08:21PM 30.3408 -97.2939 287° West 348 400 36,000  Level Houston Center
08:22PM 30.3669 -97.4053 285° West 351 404 36,000  Level Houston Center
08:23PM 30.3933 -97.5156 286° West 352 405 36,000  Level Houston Center
08:24PM 30.4203 -97.6267 286° West 354 407 36,000  Level Houston Center
08:25PM 30.4475 -97.7392 286° West 358 412 36,000  Level Houston Center
08:26PM 30.4731 -97.8528 285° West 359 413 36,000  Level Houston Center
08:27PM 30.5000 -97.9644 286° West 358 412 36,000  Level Houston Center
08:28PM 30.5317 -98.0972 286° West 361 415 36,000  Level Houston Center
08:30PM 30.5575 -98.2097 285° West 358 412 36,000  Level Houston Center
08:31PM 30.5839 -98.3217 285° West 357 411 36,000  Level Houston Center
08:32PM 30.6092 -98.4322 285° West 353 406 36,000  Level Houston Center
08:33PM 30.6353 -98.5428 285° West 351 404 36,000  Level Houston Center
08:34PM 30.6606 -98.6522 285° West 350 403 36,000  Level Houston Center
08:35PM 30.6858 -98.7619 285° West 349 402 36,000  Level Houston Center
08:36PM 30.7114 -98.8708 285° West 347 399 36,000  Level Houston Center
08:37PM 30.7403 -98.9967 285° West 344 396 36,000  Level Houston Center
08:38PM 30.7636 -99.1058 284° West 346 398 36,000  Level Houston Center
08:39PM 30.7878 -99.2100 285° West 345 397 36,000  Level Houston Center
08:40PM 30.8125 -99.3175 285° West 345 397 36,000  Level Houston Center
08:41PM 30.8358 -99.4258 284° West 346 398 36,000  Level Houston Center
08:42PM 30.8647 -99.5553 285° West 346 398 36,000  Level Houston Center
08:43PM 30.8897 -99.6622 285° West 345 397 36,000  Level Houston Center
08:44PM 30.9114 -99.7669 284° West 339 390 36,000  Level Houston Center
08:45PM 30.9342 -99.8736 284° West 341 392 36,000  Level Houston Center
08:46PM 30.9578 -99.9794 285° West 340 391 36,000  Level Houston Center
08:47PM 30.9808 -100.0864 284° West 341 392 36,000  Level Houston Center
08:48PM 31.0075 -100.2122 284° West 337 388 36,000  Level Houston Center
08:49PM 31.0306 -100.3186 284° West 338 389 36,000  Level Houston Center
08:50PM 31.0539 -100.4261 284° West 342 394 36,000  Level Houston Center
08:51PM 31.1008 -100.5214 300° West 355 409 36,000  Level Houston Center
08:52PM 31.1608 -100.6097 308° West 352 405 36,000  Level Houston Center
08:53PM 31.1844 -100.6428 310° West 364 419 36,000  Level Fort Worth Center
08:54PM 31.2447 -100.7322 308° West 364 419 36,000  Level Fort Worth Center
08:55PM 31.3008 -100.8194 307° West 350 403 36,100 600 Climbing Fort Worth Center
08:55PM 31.3486 -100.8856 310° West 338 389 37,100 900 Climbing Houston Center
08:57PM 31.4172 -100.9867 309° West 340 391 37,900 360 Climbing Fort Worth Center
08:58PM 31.4794 -101.0767 309° West 340 391 38,000  Climbing Fort Worth Center
08:59PM 31.5372 -101.1669 307° West 345 397 38,000  Level Fort Worth Center
09:00PM 31.5972 -101.2569 308° West 351 404 38,000  Level Fort Worth Center
09:01PM 31.6611 -101.3500 309° West 351 404 38,000  Level Fort Worth Center
09:02PM 31.7189 -101.4381 308° West 351 404 38,000  Level Fort Worth Center
09:03PM 31.7744 -101.5258 307° West 346 398 38,000  Level Fort Worth Center
09:04PM 31.8322 -101.6117 308° West 346 398 38,000  Level Fort Worth Center
09:05PM 31.8897 -101.6975 308° West 346 398 38,000  Level Fort Worth Center
09:06PM 31.9472 -101.7858 308° West 346 398 38,000  Level Fort Worth Center
09:07PM 32.0047 -101.8742 308° West 340 391 38,000  Level Fort Worth Center
09:08PM 32.0581 -101.9578 307° West 339 390 38,000  Level Fort Worth Center
09:09PM 32.1153 -102.0464 307° West 334 384 38,000  Level Fort Worth Center
09:10PM 32.1744 -102.1428 306° West 334 384 38,000  Level Fort Worth Center
09:11PM 32.2314 -102.2317 307° West 334 384 38,000  Level Fort Worth Center
09:12PM 32.2906 -102.3208 308° West 340 391 38,000  Level Fort Worth Center
09:13PM 32.3456 -102.4097 306° West 340 391 38,000  Level Fort Worth Center
09:14PM 32.4006 -102.4942 308° West 355 409 38,000  Level Fort Worth Center
09:15PM 32.4553 -102.5833 306° West 350 403 38,000  Level Fort Worth Center
09:16PM 32.5142 -102.6753 307° West 350 403 38,000  Level Fort Worth Center
09:17PM 32.5750 -102.7650 309° West 350 403 38,000  Level Fort Worth Center
09:18PM 32.6319 -102.8500 309° West 345 397 38,000  Level Fort Worth Center
09:19PM 32.6886 -102.9397 307° West 345 397 38,000  Level Fort Worth Center
09:20PM 32.7469 -103.0322 307° West 345 397 38,000  Level Fort Worth Center
09:21PM 32.8078 -103.1175 310° West 345 397 38,000  Level Fort Worth Center
09:22PM 32.8581 -103.2097 303° West 345 397 38,000  Level Fort Worth Center
09:22PM 32.8903 -103.2575 309° West 338 389 38,000  Level Albuquerque Center
09:23PM 32.9472 -103.3469 307° West 338 389 38,000  Level Albuquerque Center
09:24PM 33.0019 -103.4350 307° West 336 387 38,000  Level Albuquerque Center
09:25PM 33.0692 -103.5419 307° West 336 387 38,000  Level Albuquerque Center
09:26PM 33.1250 -103.6317 307° West 336 387 38,000  Level Albuquerque Center
09:27PM 33.1831 -103.7225 307° West 337 388 38,000  Level Albuquerque Center
09:28PM 33.2469 -103.8253 307° West 356 410 38,000  Level Albuquerque Center
09:29PM 33.3072 -103.9228 307° West 363 418 38,000  Level Albuquerque Center
09:30PM 33.3661 -104.0192 306° West 360 414 38,000  Level Albuquerque Center
09:31PM 33.4306 -104.1242 306° West 364 419 38,000  Level Albuquerque Center
09:32PM 33.5056 -104.2067 317° Northwest 374 430 38,000  Level Albuquerque Center
09:33PM 33.6067 -104.2761 330° Northwest 388 447 38,000  Level Albuquerque Center
09:34PM 33.7006 -104.3406 330° Northwest 389 448 38,000  Level Albuquerque Center
09:36PM 33.7964 -104.4094 329° Northwest 399 459 38,000  Level Albuquerque Center
09:37PM 33.8992 -104.4850 329° Northwest 403 464 38,000  Level Albuquerque Center
09:38PM 33.9947 -104.5569 328° Northwest 405 466 38,000  Level Albuquerque Center
09:39PM 34.0911 -104.6181 332° Northwest 412 474 38,000  Level Albuquerque Center
09:40PM 34.2089 -104.6597 344° North 432 497 38,000  Level Albuquerque Center
09:41PM 34.3256 -104.7033 343° North 434 499 38,000  Level Albuquerque Center
09:42PM 34.4053 -104.8117 312° West 378 435 38,000  Level Albuquerque Center
09:43PM 34.4219 -104.9336 279° West 366 421 38,000  Level Albuquerque Center
09:44PM 34.4383 -105.0553 279° West 362 417 38,000  Level Albuquerque Center
09:45PM 34.4550 -105.1803 279° West 369 425 38,000  Level Albuquerque Center
09:46PM 34.4714 -105.3044 279° West 370 426 38,000  Level Albuquerque Center
09:47PM 34.4872 -105.4275 279° West 368 423 38,000  Level Albuquerque Center
09:48PM 34.5042 -105.5506 280° West 366 421 38,000  Level Albuquerque Center
09:49PM 34.5194 -105.6717 279° West 362 417 38,000  Level Albuquerque Center
09:50PM 34.5344 -105.7903 279° West 356 410 38,000  Level Albuquerque Center
09:51PM 34.5486 -105.9064 278° West 349 402 38,000  Level Albuquerque Center
09:52PM 34.5636 -106.0231 279° West 347 399 38,000  Level Albuquerque Center
09:53PM 34.5792 -106.1597 278° West 347 399 38,000  Level Albuquerque Center
09:54PM 34.5917 -106.2642 278° West 352 405 38,000  Level Albuquerque Center
09:55PM 34.6075 -106.3825 279° West 354 407 38,000  Level Albuquerque Center
09:56PM 34.6214 -106.5044 278° West 360 414 38,000  Level Albuquerque Center
09:57PM 34.6361 -106.6256 278° West 361 415 38,000  Level Albuquerque Center
09:58PM 34.6531 -106.7694 278° West 359 413 38,000  Level Albuquerque Center
09:59PM 34.6667 -106.8917 278° West 360 414 38,000  Level Albuquerque Center
10:00PM 34.6814 -107.0133 278° West 362 417 38,000  Level Albuquerque Center
10:01PM 34.6950 -107.1353 278° West 363 418 38,000  Level Albuquerque Center
10:02PM 34.7092 -107.2553 278° West 360 414 38,000  Level Albuquerque Center
10:03PM 34.7231 -107.3761 278° West 359 413 38,000  Level Albuquerque Center
10:04PM 34.7369 -107.4961 278° West 358 412 38,000  Level Albuquerque Center
10:05PM 34.7500 -107.6142 278° West 354 407 38,000  Level Albuquerque Center
10:06PM 34.7625 -107.7319 277° West 352 405 38,000  Level Albuquerque Center
10:07PM 34.7753 -107.8497 278° West 351 404 38,000  Level Albuquerque Center
10:08PM 34.7919 -107.9944 278° West 357 411 38,000  Level Albuquerque Center
10:09PM 34.8050 -108.1106 278° West 352 405 38,000  Level Albuquerque Center
10:10PM 34.8167 -108.2278 277° West 349 402 38,000  Level Albuquerque Center
10:11PM 34.8297 -108.3442 278° West 349 402 38,000  Level Albuquerque Center
10:13PM 34.8428 -108.4706 277° West 350 403 38,000  Level Albuquerque Center
10:14PM 34.8550 -108.5819 278° West 348 400 38,000  Level Albuquerque Center
10:15PM 34.8683 -108.7156 277° West 353 406 38,000  Level Albuquerque Center
10:16PM 34.8803 -108.8319 277° West 359 413 38,000  Level Albuquerque Center
10:17PM 34.8967 -108.9678 278° West 361 415 38,000  Level Albuquerque Center
10:18PM 34.9217 -109.0803 285° West 360 414 38,000  Level Albuquerque Center
10:19PM 34.9458 -109.1928 285° West 358 412 38,000  Level Albuquerque Center
10:20PM 34.9739 -109.3231 285° West 356 410 38,000  Level Albuquerque Center
10:21PM 34.9969 -109.4367 284° West 359 413 38,000  Level Albuquerque Center
10:22PM 35.0242 -109.5669 284° West 356 410 38,000  Level Albuquerque Center
10:23PM 35.0483 -109.6819 284° West 361 415 38,000  Level Albuquerque Center
10:24PM 35.0719 -109.7981 284° West 365 420 38,000  Level Albuquerque Center
10:25PM 35.1006 -109.9342 284° West 368 423 38,000  Level Albuquerque Center
10:26PM 35.1256 -110.0517 285° West 372 428 38,000  Level Albuquerque Center
10:27PM 35.1517 -110.1847 284° West 366 421 38,000  Level Albuquerque Center
10:28PM 35.1744 -110.2983 284° West 362 417 38,000  Level Albuquerque Center
10:29PM 35.1944 -110.4125 282° West 360 414 38,000  Level Albuquerque Center
10:30PM 35.2203 -110.5492 283° West 366 421 38,000  Level Albuquerque Center
10:31PM 35.2447 -110.6686 284° West 374 430 38,000  Level Albuquerque Center
10:32PM 35.2728 -110.8094 284° West 379 436 38,000  Level Albuquerque Center
10:33PM 35.2969 -110.9308 284° West 383 441 38,000  Level Albuquerque Center
10:34PM 35.3197 -111.0503 283° West 379 436 38,000  Level Albuquerque Center
10:35PM 35.3464 -111.1897 283° West 378 435 38,000  Level Albuquerque Center
10:36PM 35.3703 -111.3094 284° West 377 434 38,000  Level Albuquerque Center
10:37PM 35.3967 -111.4492 283° West 383 441 38,000  Level Albuquerque Center
10:38PM 35.4206 -111.5753 283° West 385 443 38,000  Level Albuquerque Center
10:39PM 35.4444 -111.7011 283° West 381 438 38,000  Level Albuquerque Center
10:40PM 35.4678 -111.8258 283° West 379 436 38,000  Level Albuquerque Center
10:41PM 35.4908 -111.9508 283° West 378 435 38,000  Level Albuquerque Center
10:42PM 35.5144 -112.0769 283° West 380 437 38,000  Level Albuquerque Center
10:43PM 35.5233 -112.1267 282° West 379 436 38,000  Level Los Angeles Center
10:43PM 35.5378 -112.2028 283° West 381 438 38,000  Level Albuquerque Center
10:44PM 35.5658 -112.3547 283° West 382 440 38,000  Level Albuquerque Center
10:45PM 35.5700 -112.3811 281° West 384 442 38,000  Level Los Angeles Center
10:46PM 35.5986 -112.5328 283° West 382 440 38,000  Level Los Angeles Center
10:47PM 35.6200 -112.6514 283° West 382 440 38,000  Level Los Angeles Center
10:48PM 35.6431 -112.7756 283° West 376 433 38,000  Level Los Angeles Center
10:49PM 35.6697 -112.9308 282° West 382 440 38,000  Level Los Angeles Center
10:50PM 35.6906 -113.0428 283° West 389 448 38,000  Level Los Angeles Center
10:51PM 35.7161 -113.1939 282° West 390 449 38,000  Level Los Angeles Center
10:52PM 35.7389 -113.3231 282° West 390 449 38,000  Level Los Angeles Center
10:53PM 35.7622 -113.4539 282° West 393 452 38,000  Level Los Angeles Center
10:54PM 35.7864 -113.5947 282° West 396 456 38,000  Level Los Angeles Center
10:55PM 35.8086 -113.7272 282° West 395 455 38,000  Level Los Angeles Center
10:56PM 35.8308 -113.8594 282° West 394 453 38,000  Level Los Angeles Center
10:57PM 35.8528 -113.9919 282° West 395 455 38,000  Level Los Angeles Center
10:58PM 35.8800 -114.1528 282° West 399 459 38,000  Level Los Angeles Center
10:59PM 35.9028 -114.2856 282° West 398 458 38,000  Level Los Angeles Center
11:00PM 35.9461 -114.4119 293° West 401 461 38,000  Level Los Angeles Center
11:01PM 35.9939 -114.5369 295° West 401 461 38,000  Level Los Angeles Center
11:02PM 36.0383 -114.6553 295° West 383 441 38,000  Level Los Angeles Center
11:03PM 36.0836 -114.7733 295° West 380 437 38,000  Level Los Angeles Center
11:04PM 36.1281 -114.8944 294° West 387 445 38,000  Level Los Angeles Center
11:05PM 36.1833 -115.0397 295° West 388 447 38,000  Level Los Angeles Center
11:06PM 36.2281 -115.1622 294° West 390 449 38,000  Level Los Angeles Center
11:07PM 36.2739 -115.2831 295° West 389 448 38,000  Level Los Angeles Center
11:08PM 36.3194 -115.4075 294° West 395 455 38,000  Level Los Angeles Center
11:09PM 36.3636 -115.5297 294° West 398 458 38,000  Level Los Angeles Center
11:10PM 36.4178 -115.6772 295° West 404 465 38,000  Level Los Angeles Center
11:11PM 36.4644 -115.8044 295° West 407 468 38,000  Level Los Angeles Center
11:12PM 36.5125 -115.9381 294° West 403 464 38,000  Level Los Angeles Center
11:14PM 36.5581 -116.0631 294° West 404 465 38,000  Level Los Angeles Center
11:15PM 36.6033 -116.1900 294° West 400 460 38,000 -360 Level Los Angeles Center
11:16PM 36.6494 -116.3164 294° West 401 461 37,300 -840 Descending Los Angeles Center
11:17PM 36.6939 -116.4406 294° West 394 453 36,300 -660 Descending Los Angeles Center
11:18PM 36.7369 -116.5614 294° West 385 443 36,000 -180 Descending Los Angeles Center
11:19PM 36.7789 -116.6825 293° West 380 437 36,000  Level Los Angeles Center
11:20PM 36.8617 -116.7992 312° West 382 440 36,000  Level Los Angeles Center
11:21PM 36.9494 -116.8717 327° Northwest 379 436 36,000  Level Los Angeles Center
11:22PM 37.0389 -116.9461 326° Northwest 385 443 36,000  Level Los Angeles Center
11:23PM 37.0700 -117.0803 286° West 401 461 36,000  Level Oakland Center
11:24PM 37.0922 -117.2142 282° West 394 453 36,000  Level Oakland Center
11:25PM 37.1142 -117.3492 282° West 394 453 36,000  Level Oakland Center
11:26PM 37.1367 -117.4869 282° West 399 459 36,000  Level Oakland Center
11:27PM 37.1583 -117.6253 281° West 402 463 36,000  Level Oakland Center
11:28PM 37.1789 -117.7619 281° West 399 459 36,000  Level Oakland Center
11:29PM 37.1997 -117.8958 281° West 393 452 36,000  Level Oakland Center
11:30PM 37.2214 -118.0336 281° West 398 458 36,000  Level Oakland Center
11:31PM 37.2456 -118.1986 280° West 399 459 36,000  Level Oakland Center
11:32PM 37.2667 -118.3339 281° West 395 455 36,000  Level Oakland Center
11:33PM 37.2872 -118.4736 281° West 403 464 36,000  Level Oakland Center
11:35PM 37.3278 -118.7539 280° West 401 461 36,000  Level Oakland Center
11:36PM 37.3475 -118.8919 280° West 403 464 36,000  Level Oakland Center
11:37PM 37.3672 -119.0286 280° West 400 460 36,000  Level Oakland Center
11:38PM 37.3872 -119.1664 280° West 404 465 36,000  Level Oakland Center
11:39PM 37.4067 -119.3039 280° West 399 459 36,000  Level Oakland Center
11:40PM 37.4261 -119.4411 280° West 399 459 36,000  Level Oakland Center
11:41PM 37.4453 -119.5767 280° West 405 466 36,000 -120 Level Oakland Center
11:42PM 37.4639 -119.7158 280° West 403 464 35,800 -660 Descending Oakland Center
11:43PM 37.4819 -119.8533 279° West 395 455 34,700 -1,020 Descending Oakland Center
11:44PM 37.5019 -119.9919 280° West 399 459 33,800 -1,200 Descending Oakland Center
11:45PM 37.5231 -120.1567 279° West 392 451 32,300 -1,680 Descending Oakland Center
11:46PM 37.5433 -120.2856 281° West 377 434 30,400 -1,920 Descending Oakland Center
11:47PM 37.5589 -120.4156 279° West 377 434 28,500 -1,920 Descending Oakland Center
11:48PM 37.5761 -120.5419 280° West 369 425 26,500 -1,800 Descending Oakland Center
11:49PM 37.5833 -120.6500 275° West 351 404 25,300 -1,620 Descending Northern Cal TRACON
11:50PM 37.6000 -120.7667 280° West 333 383 23,600 -1,740 Descending Northern Cal TRACON
11:51PM 37.6167 -120.8667 282° West 327 376 21,900 -1,800 Descending Northern Cal TRACON
11:52PM 37.6167 -121.0000 270° West 332 382 20,100 -1,740 Descending Northern Cal TRACON
11:53PM 37.6167 -121.1167 270° West 333 383 18,300 -1,620 Descending Northern Cal TRACON
11:54PM 37.6000 -121.2333 260° West 327 376 16,700 -1,680 Descending Northern Cal TRACON
11:55PM 37.5833 -121.3333 258° West 312 359 15,000 -1,560 Descending Northern Cal TRACON
11:56PM 37.5667 -121.4167 256° West 294 338 13,800 -1,380 Descending Northern Cal TRACON
11:57PM 37.5667 -121.5167 270° West 297 342 12,400 -1,560 Descending Northern Cal TRACON
11:58PM 37.5500 -121.6333 260° West 295 339 10,600 -1,620 Descending Northern Cal TRACON
11:59PM 37.5167 -121.7500 250° West 294 338 8,900 -1,140 Descending Northern Cal TRACON
12:00AM 37.5000 -121.8333 256° West 274 315 8,300 -840 Descending Northern Cal TRACON
12:01AM 37.5000 -121.9333 270° West 252 290 7,300 -1,200 Descending Northern Cal TRACON
12:02AM 37.5167 -122.0167 284° West 253 291 5,900 -1,320 Descending Northern Cal TRACON
12:03AM 37.5333 -122.0833 288° West 225 259 4,800 -1,200 Descending Northern Cal TRACON
12:04AM 37.5500 -122.1500 288° West 204 235 3,700 -1,140 Descending Northern Cal TRACON
12:04AM 37.5542 -122.1642 290° West 217 250 3,300 -1,080 Descending Oakland Center
12:05AM 37.5728 -122.2236 292° West 198 228 2,300 -1,020 Descending Oakland Center
12:06AM 37.5850 -122.2822 285° West 184 212 1,300 -840 Descending Oakland Center
12:08AM 37.5972 -122.3256 290° West 156 180 600 -600 Descending Oakland Center
12:09AM 37.6122 -122.3583 300° West 143 165 200 -420 Descending Oakland Center
12:11AM 37.6167 -122.3667 322° Northwest  Level FlightAware Approximate